sensor_id;sensor_type;location;lat;lon;timestamp;P1;durP1;ratioP1;P2;durP2;ratioP2
43990;SDS011;29654;50.784;20.604;2022-12-10T00:00:24;5.00;;;4.50;;
43990;SDS011;29654;50.784;20.604;2022-12-10T00:05:28;5.20;;;4.70;;
43990;SDS011;29654;50.784;20.604;2022-12-10T00:10:31;5.10;;;4.40;;
43990;SDS011;29654;50.784;20.604;2022-12-10T00:15:34;4.95;;;4.35;;
43990;SDS011;29654;50.784;20.604;2022-12-10T00:20:38;4.05;;;3.70;;
43990;SDS011;29654;50.784;20.604;2022-12-10T00:25:41;4.55;;;4.00;;
43990;SDS011;29654;50.784;20.604;2022-12-10T00:30:44;3.63;;;3.33;;
43990;SDS011;29654;50.784;20.604;2022-12-10T00:35:48;4.93;;;4.00;;
43990;SDS011;29654;50.784;20.604;2022-12-10T00:40:50;3.92;;;3.60;;
43990;SDS011;29654;50.784;20.604;2022-12-10T00:45:53;4.88;;;3.90;;
43990;SDS011;29654;50.784;20.604;2022-12-10T00:51:00;4.47;;;4.07;;
43990;SDS011;29654;50.784;20.604;2022-12-10T00:56:06;4.38;;;3.97;;
43990;SDS011;29654;50.784;20.604;2022-12-10T01:01:10;4.70;;;4.30;;
43990;SDS011;29654;50.784;20.604;2022-12-10T01:06:17;5.93;;;4.47;;
43990;SDS011;29654;50.784;20.604;2022-12-10T01:11:24;4.70;;;4.10;;
43990;SDS011;29654;50.784;20.604;2022-12-10T01:16:29;4.53;;;4.13;;
43990;SDS011;29654;50.784;20.604;2022-12-10T01:21:34;5.10;;;4.50;;
43990;SDS011;29654;50.784;20.604;2022-12-10T01:26:37;4.32;;;3.70;;
43990;SDS011;29654;50.784;20.604;2022-12-10T01:31:40;4.18;;;3.83;;
43990;SDS011;29654;50.784;20.604;2022-12-10T01:36:45;4.85;;;4.35;;
43990;SDS011;29654;50.784;20.604;2022-12-10T01:41:54;5.43;;;4.70;;
43990;SDS011;29654;50.784;20.604;2022-12-10T01:46:59;5.18;;;4.47;;
43990;SDS011;29654;50.784;20.604;2022-12-10T01:52:07;5.82;;;4.68;;
43990;SDS011;29654;50.784;20.604;2022-12-10T01:57:12;4.90;;;4.38;;
43990;SDS011;29654;50.784;20.604;2022-12-10T02:02:20;4.78;;;4.38;;
43990;SDS011;29654;50.784;20.604;2022-12-10T02:07:46;4.45;;;4.05;;
43990;SDS011;29654;50.784;20.604;2022-12-10T02:13:03;4.85;;;4.05;;
43990;SDS011;29654;50.784;20.604;2022-12-10T02:18:12;4.45;;;4.03;;
43990;SDS011;29654;50.784;20.604;2022-12-10T02:23:24;4.45;;;4.05;;
43990;SDS011;29654;50.784;20.604;2022-12-10T02:28:34;5.38;;;4.43;;
43990;SDS011;29654;50.784;20.604;2022-12-10T02:33:55;4.30;;;3.85;;
43990;SDS011;29654;50.784;20.604;2022-12-10T02:39:02;4.07;;;3.78;;
43990;SDS011;29654;50.784;20.604;2022-12-10T02:44:16;4.30;;;3.90;;
43990;SDS011;29654;50.784;20.604;2022-12-10T02:49:22;3.85;;;3.50;;
43990;SDS011;29654;50.784;20.604;2022-12-10T02:54:34;4.40;;;4.00;;
43990;SDS011;29654;50.784;20.604;2022-12-10T02:59:47;5.13;;;4.63;;
43990;SDS011;29654;50.784;20.604;2022-12-10T03:05:13;5.43;;;4.72;;
43990;SDS011;29654;50.784;20.604;2022-12-10T03:10:24;5.88;;;5.28;;
43990;SDS011;29654;50.784;20.604;2022-12-10T03:15:31;6.43;;;5.75;;
43990;SDS011;29654;50.784;20.604;2022-12-10T03:20:38;5.63;;;5.00;;
43990;SDS011;29654;50.784;20.604;2022-12-10T03:25:46;7.50;;;5.95;;
43990;SDS011;29654;50.784;20.604;2022-12-10T03:30:52;6.68;;;5.70;;
43990;SDS011;29654;50.784;20.604;2022-12-10T03:35:57;6.53;;;5.93;;
43990;SDS011;29654;50.784;20.604;2022-12-10T03:41:00;6.75;;;6.15;;
43990;SDS011;29654;50.784;20.604;2022-12-10T03:46:03;7.18;;;6.55;;
43990;SDS011;29654;50.784;20.604;2022-12-10T03:51:07;6.68;;;5.68;;
43990;SDS011;29654;50.784;20.604;2022-12-10T03:56:10;6.93;;;6.22;;
43990;SDS011;29654;50.784;20.604;2022-12-10T04:01:13;6.53;;;5.93;;
43990;SDS011;29654;50.784;20.604;2022-12-10T04:06:18;7.10;;;6.40;;
43990;SDS011;29654;50.784;20.604;2022-12-10T04:11:21;6.55;;;5.95;;
43990;SDS011;29654;50.784;20.604;2022-12-10T04:16:24;7.40;;;6.15;;
43990;SDS011;29654;50.784;20.604;2022-12-10T04:21:30;6.20;;;5.57;;
43990;SDS011;29654;50.784;20.604;2022-12-10T04:26:52;6.53;;;5.60;;
43990;SDS011;29654;50.784;20.604;2022-12-10T04:31:56;5.65;;;5.15;;
43990;SDS011;29654;50.784;20.604;2022-12-10T04:37:01;8.07;;;6.57;;
43990;SDS011;29654;50.784;20.604;2022-12-10T04:42:05;7.00;;;6.22;;
43990;SDS011;29654;50.784;20.604;2022-12-10T04:47:09;6.38;;;5.78;;
43990;SDS011;29654;50.784;20.604;2022-12-10T04:52:15;6.07;;;5.47;;
43990;SDS011;29654;50.784;20.604;2022-12-10T04:57:18;6.10;;;5.50;;
43990;SDS011;29654;50.784;20.604;2022-12-10T05:02:21;6.35;;;5.75;;
43990;SDS011;29654;50.784;20.604;2022-12-10T05:07:25;5.68;;;5.15;;
43990;SDS011;29654;50.784;20.604;2022-12-10T05:12:27;5.47;;;4.97;;
43990;SDS011;29654;50.784;20.604;2022-12-10T05:17:30;5.60;;;5.10;;
43990;SDS011;29654;50.784;20.604;2022-12-10T05:22:35;5.22;;;4.72;;
43990;SDS011;29654;50.784;20.604;2022-12-10T05:27:56;4.82;;;4.45;;
43990;SDS011;29654;50.784;20.604;2022-12-10T05:32:58;5.00;;;4.55;;
43990;SDS011;29654;50.784;20.604;2022-12-10T05:38:02;5.00;;;4.50;;
43990;SDS011;29654;50.784;20.604;2022-12-10T05:43:05;6.07;;;5.50;;
43990;SDS011;29654;50.784;20.604;2022-12-10T05:48:09;5.95;;;5.35;;
43990;SDS011;29654;50.784;20.604;2022-12-10T05:53:13;6.20;;;5.60;;
43990;SDS011;29654;50.784;20.604;2022-12-10T05:58:18;6.45;;;5.85;;
43990;SDS011;29654;50.784;20.604;2022-12-10T06:03:21;6.45;;;5.82;;
43990;SDS011;29654;50.784;20.604;2022-12-10T06:08:25;6.72;;;6.13;;
43990;SDS011;29654;50.784;20.604;2022-12-10T06:13:27;6.55;;;5.78;;
43990;SDS011;29654;50.784;20.604;2022-12-10T06:18:30;6.45;;;5.85;;
43990;SDS011;29654;50.784;20.604;2022-12-10T06:23:34;6.50;;;5.88;;
43990;SDS011;29654;50.784;20.604;2022-12-10T06:28:37;7.13;;;6.43;;
43990;SDS011;29654;50.784;20.604;2022-12-10T06:33:41;6.80;;;6.10;;
43990;SDS011;29654;50.784;20.604;2022-12-10T06:38:46;7.72;;;7.03;;
43990;SDS011;29654;50.784;20.604;2022-12-10T06:43:49;7.75;;;6.95;;
43990;SDS011;29654;50.784;20.604;2022-12-10T06:48:52;9.25;;;8.02;;
43990;SDS011;29654;50.784;20.604;2022-12-10T06:53:56;9.32;;;7.88;;
43990;SDS011;29654;50.784;20.604;2022-12-10T06:58:58;8.10;;;7.30;;
43990;SDS011;29654;50.784;20.604;2022-12-10T07:04:01;7.85;;;7.13;;
43990;SDS011;29654;50.784;20.604;2022-12-10T07:09:05;9.52;;;8.55;;
43990;SDS011;29654;50.784;20.604;2022-12-10T07:14:10;10.05;;;8.48;;
43990;SDS011;29654;50.784;20.604;2022-12-10T07:19:15;9.55;;;8.55;;
43990;SDS011;29654;50.784;20.604;2022-12-10T07:24:19;10.77;;;9.43;;
43990;SDS011;29654;50.784;20.604;2022-12-10T07:29:22;13.88;;;10.65;;
43990;SDS011;29654;50.784;20.604;2022-12-10T07:34:26;12.63;;;10.75;;
43990;SDS011;29654;50.784;20.604;2022-12-10T07:39:30;11.85;;;9.75;;
43990;SDS011;29654;50.784;20.604;2022-12-10T07:44:33;11.57;;;10.27;;
43990;SDS011;29654;50.784;20.604;2022-12-10T07:49:36;13.10;;;11.43;;
43990;SDS011;29654;50.784;20.604;2022-12-10T07:54:40;14.45;;;10.85;;
43990;SDS011;29654;50.784;20.604;2022-12-10T07:59:42;11.98;;;10.35;;
43990;SDS011;29654;50.784;20.604;2022-12-10T08:04:45;13.43;;;11.52;;
43990;SDS011;29654;50.784;20.604;2022-12-10T08:09:49;14.02;;;11.48;;
43990;SDS011;29654;50.784;20.604;2022-12-10T08:14:52;13.95;;;10.65;;
43990;SDS011;29654;50.784;20.604;2022-12-10T08:19:54;11.35;;;9.93;;
43990;SDS011;29654;50.784;20.604;2022-12-10T08:24:58;13.38;;;10.45;;
43990;SDS011;29654;50.784;20.604;2022-12-10T08:30:01;14.63;;;10.63;;
43990;SDS011;29654;50.784;20.604;2022-12-10T08:35:04;15.02;;;11.38;;
43990;SDS011;29654;50.784;20.604;2022-12-10T08:40:10;14.65;;;11.52;;
43990;SDS011;29654;50.784;20.604;2022-12-10T08:45:13;17.45;;;12.52;;
43990;SDS011;29654;50.784;20.604;2022-12-10T08:50:16;15.32;;;13.10;;
43990;SDS011;29654;50.784;20.604;2022-12-10T08:55:20;18.77;;;13.43;;
43990;SDS011;29654;50.784;20.604;2022-12-10T09:00:23;17.85;;;12.65;;
43990;SDS011;29654;50.784;20.604;2022-12-10T09:05:26;18.08;;;13.52;;
43990;SDS011;29654;50.784;20.604;2022-12-10T09:10:30;16.05;;;12.40;;
43990;SDS011;29654;50.784;20.604;2022-12-10T09:15:33;20.42;;;14.27;;
43990;SDS011;29654;50.784;20.604;2022-12-10T09:20:37;17.75;;;12.60;;
43990;SDS011;29654;50.784;20.604;2022-12-10T09:25:41;14.15;;;11.30;;
43990;SDS011;29654;50.784;20.604;2022-12-10T09:30:44;14.70;;;11.77;;
43990;SDS011;29654;50.784;20.604;2022-12-10T09:35:46;15.75;;;12.20;;
43990;SDS011;29654;50.784;20.604;2022-12-10T09:40:52;16.45;;;12.48;;
43990;SDS011;29654;50.784;20.604;2022-12-10T09:46:04;16.58;;;13.13;;
43990;SDS011;29654;50.784;20.604;2022-12-10T09:51:17;15.48;;;11.27;;
43990;SDS011;29654;50.784;20.604;2022-12-10T09:56:28;16.65;;;12.75;;
43990;SDS011;29654;50.784;20.604;2022-12-10T10:01:35;15.77;;;10.90;;
43990;SDS011;29654;50.784;20.604;2022-12-10T10:06:39;16.00;;;10.88;;
43990;SDS011;29654;50.784;20.604;2022-12-10T10:11:45;13.90;;;11.05;;
43990;SDS011;29654;50.784;20.604;2022-12-10T10:16:50;13.82;;;11.07;;
43990;SDS011;29654;50.784;20.604;2022-12-10T10:21:58;13.82;;;10.60;;
43990;SDS011;29654;50.784;20.604;2022-12-10T10:27:07;15.90;;;11.52;;
43990;SDS011;29654;50.784;20.604;2022-12-10T10:32:16;14.32;;;10.23;;
43990;SDS011;29654;50.784;20.604;2022-12-10T10:37:22;13.40;;;10.32;;
43990;SDS011;29654;50.784;20.604;2022-12-10T10:42:34;12.55;;;9.73;;
43990;SDS011;29654;50.784;20.604;2022-12-10T10:47:39;14.75;;;10.75;;
43990;SDS011;29654;50.784;20.604;2022-12-10T10:52:41;13.63;;;9.77;;
43990;SDS011;29654;50.784;20.604;2022-12-10T10:57:46;14.80;;;10.88;;
43990;SDS011;29654;50.784;20.604;2022-12-10T11:02:48;13.18;;;10.88;;
43990;SDS011;29654;50.784;20.604;2022-12-10T11:07:56;15.98;;;12.68;;
43990;SDS011;29654;50.784;20.604;2022-12-10T11:13:04;15.70;;;11.60;;
43990;SDS011;29654;50.784;20.604;2022-12-10T11:18:22;15.60;;;10.77;;
43990;SDS011;29654;50.784;20.604;2022-12-10T11:23:32;14.85;;;12.15;;
43990;SDS011;29654;50.784;20.604;2022-12-10T11:28:45;15.75;;;11.40;;
43990;SDS011;29654;50.784;20.604;2022-12-10T11:34:02;16.40;;;12.50;;
43990;SDS011;29654;50.784;20.604;2022-12-10T11:39:17;18.15;;;13.40;;
43990;SDS011;29654;50.784;20.604;2022-12-10T11:44:36;16.77;;;12.75;;
43990;SDS011;29654;50.784;20.604;2022-12-10T11:49:47;16.05;;;11.98;;
43990;SDS011;29654;50.784;20.604;2022-12-10T11:55:13;19.08;;;14.65;;
43990;SDS011;29654;50.784;20.604;2022-12-10T12:00:37;17.45;;;12.80;;
43990;SDS011;29654;50.784;20.604;2022-12-10T12:05:48;15.15;;;11.77;;
43990;SDS011;29654;50.784;20.604;2022-12-10T12:11:06;15.50;;;11.68;;
43990;SDS011;29654;50.784;20.604;2022-12-10T12:16:26;22.02;;;17.67;;
43990;SDS011;29654;50.784;20.604;2022-12-10T12:21:33;76.03;;;39.53;;
43990;SDS011;29654;50.784;20.604;2022-12-10T12:26:38;35.90;;;23.20;;
43990;SDS011;29654;50.784;20.604;2022-12-10T12:31:47;18.30;;;14.52;;
43990;SDS011;29654;50.784;20.604;2022-12-10T12:36:57;21.13;;;14.60;;
43990;SDS011;29654;50.784;20.604;2022-12-10T12:42:03;29.90;;;19.30;;
43990;SDS011;29654;50.784;20.604;2022-12-10T12:47:19;19.80;;;13.45;;
43990;SDS011;29654;50.784;20.604;2022-12-10T12:52:36;19.63;;;14.55;;
43990;SDS011;29654;50.784;20.604;2022-12-10T12:57:47;14.60;;;12.05;;
43990;SDS011;29654;50.784;20.604;2022-12-10T13:02:58;18.77;;;13.60;;
43990;SDS011;29654;50.784;20.604;2022-12-10T13:08:22;14.18;;;11.20;;
43990;SDS011;29654;50.784;20.604;2022-12-10T13:13:30;19.58;;;13.90;;
43990;SDS011;29654;50.784;20.604;2022-12-10T13:18:38;27.10;;;20.35;;
43990;SDS011;29654;50.784;20.604;2022-12-10T13:23:51;25.63;;;18.92;;
43990;SDS011;29654;50.784;20.604;2022-12-10T13:29:10;17.65;;;12.77;;
43990;SDS011;29654;50.784;20.604;2022-12-10T13:34:31;29.75;;;21.98;;
43990;SDS011;29654;50.784;20.604;2022-12-10T13:39:43;25.73;;;17.38;;
43990;SDS011;29654;50.784;20.604;2022-12-10T13:44:59;16.17;;;13.20;;
43990;SDS011;29654;50.784;20.604;2022-12-10T13:50:06;16.05;;;11.55;;
43990;SDS011;29654;50.784;20.604;2022-12-10T13:55:22;33.65;;;22.05;;
43990;SDS011;29654;50.784;20.604;2022-12-10T14:00:36;37.55;;;23.10;;
43990;SDS011;29654;50.784;20.604;2022-12-10T14:05:49;16.70;;;12.82;;
43990;SDS011;29654;50.784;20.604;2022-12-10T14:11:04;24.70;;;16.73;;
43990;SDS011;29654;50.784;20.604;2022-12-10T14:16:14;16.90;;;12.10;;
43990;SDS011;29654;50.784;20.604;2022-12-10T14:21:19;18.63;;;11.98;;
43990;SDS011;29654;50.784;20.604;2022-12-10T14:26:25;17.55;;;11.98;;
43990;SDS011;29654;50.784;20.604;2022-12-10T14:31:30;15.85;;;11.77;;
43990;SDS011;29654;50.784;20.604;2022-12-10T14:36:37;15.32;;;11.50;;
43990;SDS011;29654;50.784;20.604;2022-12-10T14:41:46;15.13;;;11.38;;
43990;SDS011;29654;50.784;20.604;2022-12-10T14:46:52;17.10;;;12.55;;
43990;SDS011;29654;50.784;20.604;2022-12-10T14:52:10;14.52;;;10.88;;
43990;SDS011;29654;50.784;20.604;2022-12-10T14:57:17;16.30;;;11.13;;
43990;SDS011;29654;50.784;20.604;2022-12-10T15:02:26;17.70;;;12.40;;
43990;SDS011;29654;50.784;20.604;2022-12-10T15:07:33;17.25;;;12.88;;
43990;SDS011;29654;50.784;20.604;2022-12-10T15:12:41;20.08;;;14.05;;
43990;SDS011;29654;50.784;20.604;2022-12-10T15:17:53;18.70;;;14.18;;
43990;SDS011;29654;50.784;20.604;2022-12-10T15:23:12;17.85;;;14.27;;
43990;SDS011;29654;50.784;20.604;2022-12-10T15:28:22;19.05;;;13.43;;
43990;SDS011;29654;50.784;20.604;2022-12-10T15:33:30;17.25;;;12.68;;
43990;SDS011;29654;50.784;20.604;2022-12-10T15:38:36;16.80;;;13.60;;
43990;SDS011;29654;50.784;20.604;2022-12-10T15:43:39;18.80;;;13.48;;
43990;SDS011;29654;50.784;20.604;2022-12-10T15:48:57;21.05;;;14.00;;
43990;SDS011;29654;50.784;20.604;2022-12-10T15:54:01;16.92;;;11.85;;
43990;SDS011;29654;50.784;20.604;2022-12-10T15:59:22;20.33;;;14.52;;
43990;SDS011;29654;50.784;20.604;2022-12-10T16:04:24;17.90;;;12.38;;
43990;SDS011;29654;50.784;20.604;2022-12-10T16:09:28;19.23;;;13.43;;
43990;SDS011;29654;50.784;20.604;2022-12-10T16:14:31;18.33;;;13.20;;
43990;SDS011;29654;50.784;20.604;2022-12-10T16:19:34;18.48;;;13.02;;
43990;SDS011;29654;50.784;20.604;2022-12-10T16:24:39;18.20;;;12.05;;
43990;SDS011;29654;50.784;20.604;2022-12-10T16:29:42;20.45;;;13.93;;
43990;SDS011;29654;50.784;20.604;2022-12-10T16:34:45;24.60;;;16.83;;
43990;SDS011;29654;50.784;20.604;2022-12-10T16:39:49;22.63;;;15.55;;
43990;SDS011;29654;50.784;20.604;2022-12-10T16:44:52;18.70;;;13.98;;
43990;SDS011;29654;50.784;20.604;2022-12-10T16:49:55;19.55;;;13.63;;
43990;SDS011;29654;50.784;20.604;2022-12-10T16:54:59;18.15;;;11.93;;
43990;SDS011;29654;50.784;20.604;2022-12-10T17:00:02;21.48;;;13.55;;
43990;SDS011;29654;50.784;20.604;2022-12-10T17:05:10;18.33;;;12.82;;
43990;SDS011;29654;50.784;20.604;2022-12-10T17:10:18;21.55;;;14.60;;
43990;SDS011;29654;50.784;20.604;2022-12-10T17:15:41;20.67;;;14.77;;
43990;SDS011;29654;50.784;20.604;2022-12-10T17:20:45;17.25;;;11.85;;
43990;SDS011;29654;50.784;20.604;2022-12-10T17:25:49;17.98;;;13.50;;
43990;SDS011;29654;50.784;20.604;2022-12-10T17:30:52;19.75;;;13.82;;
43990;SDS011;29654;50.784;20.604;2022-12-10T17:35:55;18.60;;;14.55;;
43990;SDS011;29654;50.784;20.604;2022-12-10T17:40:59;20.90;;;13.82;;
43990;SDS011;29654;50.784;20.604;2022-12-10T17:46:03;18.15;;;12.95;;
43990;SDS011;29654;50.784;20.604;2022-12-10T17:51:14;17.90;;;13.43;;
43990;SDS011;29654;50.784;20.604;2022-12-10T17:56:19;15.88;;;12.02;;
43990;SDS011;29654;50.784;20.604;2022-12-10T18:01:24;16.58;;;11.10;;
43990;SDS011;29654;50.784;20.604;2022-12-10T18:06:28;18.05;;;12.75;;
43990;SDS011;29654;50.784;20.604;2022-12-10T18:11:33;16.15;;;12.70;;
43990;SDS011;29654;50.784;20.604;2022-12-10T18:16:37;16.75;;;12.27;;
43990;SDS011;29654;50.784;20.604;2022-12-10T18:21:39;15.30;;;11.32;;
43990;SDS011;29654;50.784;20.604;2022-12-10T18:26:44;19.10;;;13.35;;
43990;SDS011;29654;50.784;20.604;2022-12-10T18:31:46;22.42;;;14.57;;
43990;SDS011;29654;50.784;20.604;2022-12-10T18:36:49;20.25;;;13.85;;
43990;SDS011;29654;50.784;20.604;2022-12-10T18:41:53;20.60;;;13.65;;
43990;SDS011;29654;50.784;20.604;2022-12-10T18:46:57;21.95;;;15.05;;
43990;SDS011;29654;50.784;20.604;2022-12-10T18:52:00;16.67;;;11.93;;
43990;SDS011;29654;50.784;20.604;2022-12-10T18:57:04;22.02;;;13.93;;
43990;SDS011;29654;50.784;20.604;2022-12-10T19:02:06;23.95;;;14.85;;
43990;SDS011;29654;50.784;20.604;2022-12-10T19:07:11;22.83;;;15.02;;
43990;SDS011;29654;50.784;20.604;2022-12-10T19:12:15;22.33;;;14.48;;
43990;SDS011;29654;50.784;20.604;2022-12-10T19:17:18;22.25;;;13.93;;
43990;SDS011;29654;50.784;20.604;2022-12-10T19:22:21;24.90;;;15.38;;
43990;SDS011;29654;50.784;20.604;2022-12-10T19:27:25;20.67;;;14.00;;
43990;SDS011;29654;50.784;20.604;2022-12-10T19:32:28;20.60;;;12.65;;
43990;SDS011;29654;50.784;20.604;2022-12-10T19:37:30;20.65;;;13.55;;
43990;SDS011;29654;50.784;20.604;2022-12-10T19:42:34;18.85;;;13.15;;
43990;SDS011;29654;50.784;20.604;2022-12-10T19:47:37;20.08;;;13.00;;
43990;SDS011;29654;50.784;20.604;2022-12-10T19:52:40;19.95;;;13.45;;
43990;SDS011;29654;50.784;20.604;2022-12-10T19:57:44;22.88;;;14.50;;
43990;SDS011;29654;50.784;20.604;2022-12-10T20:02:47;22.08;;;14.48;;
43990;SDS011;29654;50.784;20.604;2022-12-10T20:07:51;21.85;;;15.32;;
43990;SDS011;29654;50.784;20.604;2022-12-10T20:12:55;20.73;;;14.10;;
43990;SDS011;29654;50.784;20.604;2022-12-10T20:17:58;21.73;;;13.90;;
43990;SDS011;29654;50.784;20.604;2022-12-10T20:23:02;21.17;;;13.23;;
43990;SDS011;29654;50.784;20.604;2022-12-10T20:28:06;21.05;;;12.48;;
43990;SDS011;29654;50.784;20.604;2022-12-10T20:33:13;17.95;;;12.60;;
43990;SDS011;29654;50.784;20.604;2022-12-10T20:38:15;21.65;;;12.30;;
43990;SDS011;29654;50.784;20.604;2022-12-10T20:43:20;22.38;;;13.70;;
43990;SDS011;29654;50.784;20.604;2022-12-10T20:48:25;22.05;;;13.48;;
43990;SDS011;29654;50.784;20.604;2022-12-10T20:53:27;22.75;;;13.27;;
43990;SDS011;29654;50.784;20.604;2022-12-10T20:58:32;21.75;;;13.43;;
43990;SDS011;29654;50.784;20.604;2022-12-10T21:03:35;22.88;;;13.70;;
43990;SDS011;29654;50.784;20.604;2022-12-10T21:08:38;23.70;;;14.00;;
43990;SDS011;29654;50.784;20.604;2022-12-10T21:13:42;22.58;;;13.93;;
43990;SDS011;29654;50.784;20.604;2022-12-10T21:18:45;20.40;;;13.20;;
43990;SDS011;29654;50.784;20.604;2022-12-10T21:23:50;22.13;;;13.73;;
43990;SDS011;29654;50.784;20.604;2022-12-10T21:28:54;19.33;;;12.50;;
43990;SDS011;29654;50.784;20.604;2022-12-10T21:33:59;18.55;;;13.30;;
43990;SDS011;29654;50.784;20.604;2022-12-10T21:39:02;19.40;;;13.07;;
43990;SDS011;29654;50.784;20.604;2022-12-10T21:44:07;21.42;;;13.73;;
43990;SDS011;29654;50.784;20.604;2022-12-10T21:49:10;20.50;;;13.32;;
43990;SDS011;29654;50.784;20.604;2022-12-10T21:54:13;23.77;;;14.27;;
43990;SDS011;29654;50.784;20.604;2022-12-10T21:59:17;22.95;;;14.48;;
43990;SDS011;29654;50.784;20.604;2022-12-10T22:04:19;19.80;;;13.77;;
43990;SDS011;29654;50.784;20.604;2022-12-10T22:09:23;24.35;;;13.38;;
43990;SDS011;29654;50.784;20.604;2022-12-10T22:14:30;19.70;;;12.93;;
43990;SDS011;29654;50.784;20.604;2022-12-10T22:19:33;23.42;;;14.35;;
43990;SDS011;29654;50.784;20.604;2022-12-10T22:24:36;22.92;;;15.10;;
43990;SDS011;29654;50.784;20.604;2022-12-10T22:29:43;22.55;;;13.85;;
43990;SDS011;29654;50.784;20.604;2022-12-10T22:34:52;25.20;;;14.88;;
43990;SDS011;29654;50.784;20.604;2022-12-10T22:39:55;23.08;;;14.02;;
43990;SDS011;29654;50.784;20.604;2022-12-10T22:45:06;23.98;;;14.50;;
43990;SDS011;29654;50.784;20.604;2022-12-10T22:50:11;20.88;;;13.23;;
43990;SDS011;29654;50.784;20.604;2022-12-10T22:55:13;25.85;;;15.18;;
43990;SDS011;29654;50.784;20.604;2022-12-10T23:00:18;24.50;;;14.98;;
43990;SDS011;29654;50.784;20.604;2022-12-10T23:05:22;23.38;;;14.93;;
43990;SDS011;29654;50.784;20.604;2022-12-10T23:10:24;23.40;;;14.40;;
43990;SDS011;29654;50.784;20.604;2022-12-10T23:15:28;19.88;;;12.93;;
43990;SDS011;29654;50.784;20.604;2022-12-10T23:20:31;28.52;;;15.60;;
43990;SDS011;29654;50.784;20.604;2022-12-10T23:25:38;23.65;;;14.05;;
43990;SDS011;29654;50.784;20.604;2022-12-10T23:30:43;16.50;;;10.77;;
43990;SDS011;29654;50.784;20.604;2022-12-10T23:35:55;18.83;;;11.55;;
43990;SDS011;29654;50.784;20.604;2022-12-10T23:40:59;17.50;;;12.00;;
43990;SDS011;29654;50.784;20.604;2022-12-10T23:46:09;18.13;;;11.63;;
43990;SDS011;29654;50.784;20.604;2022-12-10T23:51:13;19.50;;;12.27;;
43990;SDS011;29654;50.784;20.604;2022-12-10T23:56:17;23.45;;;14.20;;
